sensor_id;sensor_type;location;lat;lon;timestamp;P1;durP1;ratioP1;P2;durP2;ratioP2
11431;SDS011;5772;50.940;6.782;2023-01-16T00:01:39;22.23;;;21.03;;
11431;SDS011;5772;50.940;6.782;2023-01-16T00:04:05;20.03;;;19.23;;
11431;SDS011;5772;50.940;6.782;2023-01-16T00:06:30;21.30;;;20.50;;
11431;SDS011;5772;50.940;6.782;2023-01-16T00:08:55;21.63;;;20.73;;
11431;SDS011;5772;50.940;6.782;2023-01-16T00:11:22;21.87;;;20.97;;
11431;SDS011;5772;50.940;6.782;2023-01-16T00:13:47;20.13;;;19.33;;
11431;SDS011;5772;50.940;6.782;2023-01-16T00:16:13;21.47;;;20.57;;
11431;SDS011;5772;50.940;6.782;2023-01-16T00:18:38;20.80;;;20.00;;
11431;SDS011;5772;50.940;6.782;2023-01-16T00:21:03;21.17;;;20.20;;
11431;SDS011;5772;50.940;6.782;2023-01-16T00:23:29;23.13;;;22.13;;
11431;SDS011;5772;50.940;6.782;2023-01-16T00:25:54;20.63;;;19.53;;
11431;SDS011;5772;50.940;6.782;2023-01-16T00:28:21;21.43;;;20.53;;
11431;SDS011;5772;50.940;6.782;2023-01-16T00:30:47;20.00;;;19.20;;
11431;SDS011;5772;50.940;6.782;2023-01-16T00:33:12;21.50;;;20.60;;
11431;SDS011;5772;50.940;6.782;2023-01-16T00:35:37;21.07;;;20.03;;
11431;SDS011;5772;50.940;6.782;2023-01-16T00:38:03;19.90;;;19.00;;
11431;SDS011;5772;50.940;6.782;2023-01-16T00:40:28;21.30;;;20.23;;
11431;SDS011;5772;50.940;6.782;2023-01-16T00:42:54;21.23;;;20.43;;
11431;SDS011;5772;50.940;6.782;2023-01-16T00:45:21;21.30;;;20.43;;
11431;SDS011;5772;50.940;6.782;2023-01-16T00:47:46;22.70;;;21.60;;
11431;SDS011;5772;50.940;6.782;2023-01-16T00:50:11;21.57;;;20.37;;
11431;SDS011;5772;50.940;6.782;2023-01-16T00:52:37;22.53;;;21.63;;
11431;SDS011;5772;50.940;6.782;2023-01-16T00:55:02;22.27;;;21.37;;
11431;SDS011;5772;50.940;6.782;2023-01-16T00:57:28;22.23;;;21.33;;
11431;SDS011;5772;50.940;6.782;2023-01-16T00:59:54;22.20;;;21.20;;
11431;SDS011;5772;50.940;6.782;2023-01-16T01:02:20;21.17;;;20.33;;
11431;SDS011;5772;50.940;6.782;2023-01-16T01:04:46;22.50;;;21.40;;
11431;SDS011;5772;50.940;6.782;2023-01-16T01:07:11;21.77;;;20.70;;
11431;SDS011;5772;50.940;6.782;2023-01-16T01:09:36;22.67;;;21.70;;
11431;SDS011;5772;50.940;6.782;2023-01-16T01:12:02;23.00;;;21.77;;
11431;SDS011;5772;50.940;6.782;2023-01-16T01:14:27;22.57;;;21.67;;
11431;SDS011;5772;50.940;6.782;2023-01-16T01:16:53;23.07;;;22.17;;
11431;SDS011;5772;50.940;6.782;2023-01-16T01:19:20;21.63;;;20.63;;
11431;SDS011;5772;50.940;6.782;2023-01-16T01:21:45;20.30;;;19.50;;
11431;SDS011;5772;50.940;6.782;2023-01-16T01:24:10;20.83;;;20.03;;
11431;SDS011;5772;50.940;6.782;2023-01-16T01:26:36;21.73;;;20.83;;
11431;SDS011;5772;50.940;6.782;2023-01-16T01:29:02;20.77;;;19.97;;
11431;SDS011;5772;50.940;6.782;2023-01-16T01:31:27;21.47;;;20.37;;
11431;SDS011;5772;50.940;6.782;2023-01-16T01:33:53;21.83;;;20.57;;
11431;SDS011;5772;50.940;6.782;2023-01-16T01:36:19;21.53;;;20.73;;
11431;SDS011;5772;50.940;6.782;2023-01-16T01:38:45;20.63;;;19.73;;
11431;SDS011;5772;50.940;6.782;2023-01-16T01:41:11;20.30;;;19.30;;
11431;SDS011;5772;50.940;6.782;2023-01-16T01:43:41;22.50;;;21.50;;
11431;SDS011;5772;50.940;6.782;2023-01-16T01:46:12;20.90;;;20.07;;
11431;SDS011;5772;50.940;6.782;2023-01-16T01:48:41;20.93;;;20.13;;
11431;SDS011;5772;50.940;6.782;2023-01-16T01:51:07;21.10;;;20.30;;
11431;SDS011;5772;50.940;6.782;2023-01-16T01:53:36;21.80;;;20.97;;
11431;SDS011;5772;50.940;6.782;2023-01-16T01:56:05;21.17;;;20.37;;
11431;SDS011;5772;50.940;6.782;2023-01-16T01:58:32;20.20;;;19.30;;
11431;SDS011;5772;50.940;6.782;2023-01-16T02:00:58;20.40;;;19.60;;
11431;SDS011;5772;50.940;6.782;2023-01-16T02:03:26;20.90;;;20.00;;
11431;SDS011;5772;50.940;6.782;2023-01-16T02:05:54;22.07;;;21.17;;
11431;SDS011;5772;50.940;6.782;2023-01-16T02:08:21;21.70;;;20.80;;
11431;SDS011;5772;50.940;6.782;2023-01-16T02:10:52;21.50;;;20.70;;
11431;SDS011;5772;50.940;6.782;2023-01-16T02:13:20;21.83;;;20.93;;
11431;SDS011;5772;50.940;6.782;2023-01-16T02:15:45;21.70;;;20.70;;
11431;SDS011;5772;50.940;6.782;2023-01-16T02:18:11;20.93;;;20.00;;
11431;SDS011;5772;50.940;6.782;2023-01-16T02:20:40;21.97;;;21.17;;
11431;SDS011;5772;50.940;6.782;2023-01-16T02:26:29;21.80;;;21.00;;
11431;SDS011;5772;50.940;6.782;2023-01-16T02:29:10;23.20;;;22.30;;
11431;SDS011;5772;50.940;6.782;2023-01-16T02:31:45;23.17;;;22.20;;
11431;SDS011;5772;50.940;6.782;2023-01-16T02:34:18;25.53;;;24.53;;
11431;SDS011;5772;50.940;6.782;2023-01-16T02:36:49;26.30;;;25.30;;
11431;SDS011;5772;50.940;6.782;2023-01-16T02:39:21;27.73;;;26.63;;
11431;SDS011;5772;50.940;6.782;2023-01-16T02:41:51;30.90;;;29.70;;
11431;SDS011;5772;50.940;6.782;2023-01-16T02:44:23;32.13;;;30.93;;
11431;SDS011;5772;50.940;6.782;2023-01-16T02:46:55;32.67;;;31.27;;
11431;SDS011;5772;50.940;6.782;2023-01-16T02:49:26;31.93;;;30.73;;
11431;SDS011;5772;50.940;6.782;2023-01-16T02:51:55;31.53;;;30.27;;
11431;SDS011;5772;50.940;6.782;2023-01-16T02:54:23;32.03;;;30.73;;
11431;SDS011;5772;50.940;6.782;2023-01-16T02:56:50;31.63;;;30.43;;
11431;SDS011;5772;50.940;6.782;2023-01-16T02:59:18;30.67;;;29.47;;
11431;SDS011;5772;50.940;6.782;2023-01-16T03:01:44;28.33;;;27.23;;
11431;SDS011;5772;50.940;6.782;2023-01-16T03:07:13;26.97;;;25.97;;
11431;SDS011;5772;50.940;6.782;2023-01-16T03:09:48;26.93;;;25.90;;
11431;SDS011;5772;50.940;6.782;2023-01-16T03:12:25;26.80;;;25.73;;
11431;SDS011;5772;50.940;6.782;2023-01-16T03:14:55;27.27;;;26.17;;
11431;SDS011;5772;50.940;6.782;2023-01-16T03:17:29;29.67;;;28.37;;
11431;SDS011;5772;50.940;6.782;2023-01-16T03:20:07;29.00;;;27.80;;
11431;SDS011;5772;50.940;6.782;2023-01-16T03:22:38;28.33;;;27.23;;
11431;SDS011;5772;50.940;6.782;2023-01-16T03:25:10;27.00;;;25.97;;
11431;SDS011;5772;50.940;6.782;2023-01-16T03:27:44;26.93;;;25.83;;
11431;SDS011;5772;50.940;6.782;2023-01-16T03:30:15;27.77;;;26.67;;
11431;SDS011;5772;50.940;6.782;2023-01-16T03:32:46;30.37;;;29.17;;
11431;SDS011;5772;50.940;6.782;2023-01-16T03:35:17;29.97;;;28.77;;
11431;SDS011;5772;50.940;6.782;2023-01-16T03:37:45;30.47;;;29.27;;
11431;SDS011;5772;50.940;6.782;2023-01-16T03:40:13;32.47;;;30.77;;
11431;SDS011;5772;50.940;6.782;2023-01-16T03:42:43;33.53;;;32.17;;
11431;SDS011;5772;50.940;6.782;2023-01-16T03:45:12;34.07;;;32.57;;
11431;SDS011;5772;50.940;6.782;2023-01-16T03:47:41;35.23;;;33.53;;
11431;SDS011;5772;50.940;6.782;2023-01-16T03:50:09;36.50;;;35.10;;
11431;SDS011;5772;50.940;6.782;2023-01-16T03:52:38;37.10;;;35.63;;
11431;SDS011;5772;50.940;6.782;2023-01-16T03:55:07;36.33;;;34.93;;
11431;SDS011;5772;50.940;6.782;2023-01-16T03:57:39;36.20;;;34.70;;
11431;SDS011;5772;50.940;6.782;2023-01-16T04:00:07;36.90;;;35.40;;
11431;SDS011;5772;50.940;6.782;2023-01-16T04:02:37;39.73;;;37.93;;
11431;SDS011;5772;50.940;6.782;2023-01-16T04:05:06;36.00;;;34.57;;
11431;SDS011;5772;50.940;6.782;2023-01-16T04:07:34;36.50;;;34.90;;
11431;SDS011;5772;50.940;6.782;2023-01-16T04:10:05;34.53;;;33.13;;
11431;SDS011;5772;50.940;6.782;2023-01-16T04:12:33;32.87;;;31.57;;
11431;SDS011;5772;50.940;6.782;2023-01-16T04:15:00;31.13;;;29.73;;
11431;SDS011;5772;50.940;6.782;2023-01-16T04:17:28;33.80;;;32.20;;
11431;SDS011;5772;50.940;6.782;2023-01-16T04:19:54;33.13;;;31.80;;
11431;SDS011;5772;50.940;6.782;2023-01-16T04:22:20;34.50;;;33.10;;
11431;SDS011;5772;50.940;6.782;2023-01-16T04:24:48;34.43;;;33.03;;
11431;SDS011;5772;50.940;6.782;2023-01-16T04:27:15;32.37;;;31.03;;
11431;SDS011;5772;50.940;6.782;2023-01-16T04:29:40;36.10;;;34.60;;
11431;SDS011;5772;50.940;6.782;2023-01-16T04:32:05;34.60;;;33.20;;
11431;SDS011;5772;50.940;6.782;2023-01-16T04:34:31;36.17;;;34.67;;
11431;SDS011;5772;50.940;6.782;2023-01-16T04:36:56;33.90;;;32.40;;
11431;SDS011;5772;50.940;6.782;2023-01-16T04:39:22;33.53;;;31.90;;
11431;SDS011;5772;50.940;6.782;2023-01-16T04:41:48;33.97;;;32.37;;
11431;SDS011;5772;50.940;6.782;2023-01-16T04:44:14;32.63;;;31.33;;
11431;SDS011;5772;50.940;6.782;2023-01-16T04:46:39;34.77;;;33.30;;
11431;SDS011;5772;50.940;6.782;2023-01-16T04:49:05;33.60;;;31.87;;
11431;SDS011;5772;50.940;6.782;2023-01-16T04:51:30;32.93;;;31.60;;
11431;SDS011;5772;50.940;6.782;2023-01-16T04:53:56;31.37;;;30.07;;
11431;SDS011;5772;50.940;6.782;2023-01-16T04:56:21;35.80;;;34.13;;
11431;SDS011;5772;50.940;6.782;2023-01-16T04:58:48;33.67;;;32.37;;
11431;SDS011;5772;50.940;6.782;2023-01-16T05:01:13;33.13;;;31.73;;
11431;SDS011;5772;50.940;6.782;2023-01-16T05:03:39;33.33;;;31.93;;
11431;SDS011;5772;50.940;6.782;2023-01-16T05:06:04;30.10;;;28.70;;
11431;SDS011;5772;50.940;6.782;2023-01-16T05:08:30;31.43;;;30.13;;
11431;SDS011;5772;50.940;6.782;2023-01-16T05:10:55;30.20;;;28.80;;
11431;SDS011;5772;50.940;6.782;2023-01-16T05:13:21;29.13;;;27.93;;
11431;SDS011;5772;50.940;6.782;2023-01-16T05:15:48;27.67;;;26.47;;
11431;SDS011;5772;50.940;6.782;2023-01-16T05:18:13;27.30;;;26.20;;
11431;SDS011;5772;50.940;6.782;2023-01-16T05:20:44;28.20;;;27.10;;
11431;SDS011;5772;50.940;6.782;2023-01-16T05:23:10;27.03;;;25.80;;
11431;SDS011;5772;50.940;6.782;2023-01-16T05:25:35;25.30;;;24.20;;
11431;SDS011;5772;50.940;6.782;2023-01-16T05:28:01;23.73;;;22.73;;
11431;SDS011;5772;50.940;6.782;2023-01-16T05:30:26;25.20;;;24.20;;
11431;SDS011;5772;50.940;6.782;2023-01-16T05:32:53;25.23;;;24.23;;
11431;SDS011;5772;50.940;6.782;2023-01-16T05:35:18;24.80;;;23.77;;
11431;SDS011;5772;50.940;6.782;2023-01-16T05:37:44;25.80;;;24.50;;
11431;SDS011;5772;50.940;6.782;2023-01-16T05:40:10;25.37;;;24.20;;
11431;SDS011;5772;50.940;6.782;2023-01-16T05:42:36;26.07;;;24.97;;
11431;SDS011;5772;50.940;6.782;2023-01-16T05:45:01;24.10;;;22.90;;
11431;SDS011;5772;50.940;6.782;2023-01-16T05:47:27;25.77;;;24.77;;
11431;SDS011;5772;50.940;6.782;2023-01-16T05:49:54;25.47;;;24.47;;
11431;SDS011;5772;50.940;6.782;2023-01-16T05:52:20;24.67;;;23.67;;
11431;SDS011;5772;50.940;6.782;2023-01-16T05:54:45;23.80;;;22.70;;
11431;SDS011;5772;50.940;6.782;2023-01-16T05:57:10;25.10;;;24.10;;
11431;SDS011;5772;50.940;6.782;2023-01-16T05:59:36;23.00;;;22.10;;
11431;SDS011;5772;50.940;6.782;2023-01-16T06:02:01;24.63;;;23.67;;
11431;SDS011;5772;50.940;6.782;2023-01-16T06:04:27;22.80;;;21.37;;
11431;SDS011;5772;50.940;6.782;2023-01-16T06:06:54;21.00;;;20.10;;
11431;SDS011;5772;50.940;6.782;2023-01-16T06:09:19;22.73;;;21.40;;
11431;SDS011;5772;50.940;6.782;2023-01-16T06:11:45;21.63;;;20.73;;
11431;SDS011;5772;50.940;6.782;2023-01-16T06:14:10;20.30;;;19.20;;
11431;SDS011;5772;50.940;6.782;2023-01-16T06:16:35;21.53;;;20.73;;
11431;SDS011;5772;50.940;6.782;2023-01-16T06:19:01;21.23;;;20.33;;
11431;SDS011;5772;50.940;6.782;2023-01-16T06:21:27;21.10;;;20.10;;
11431;SDS011;5772;50.940;6.782;2023-01-16T06:23:53;20.43;;;19.60;;
11431;SDS011;5772;50.940;6.782;2023-01-16T06:26:19;21.13;;;20.30;;
11431;SDS011;5772;50.940;6.782;2023-01-16T06:28:44;21.73;;;20.83;;
11431;SDS011;5772;50.940;6.782;2023-01-16T06:31:10;21.57;;;20.67;;
11431;SDS011;5772;50.940;6.782;2023-01-16T06:33:36;22.07;;;20.80;;
11431;SDS011;5772;50.940;6.782;2023-01-16T06:36:01;20.47;;;19.57;;
11431;SDS011;5772;50.940;6.782;2023-01-16T06:38:26;20.07;;;19.27;;
11431;SDS011;5772;50.940;6.782;2023-01-16T06:40:53;21.50;;;20.50;;
11431;SDS011;5772;50.940;6.782;2023-01-16T06:43:19;20.73;;;19.77;;
11431;SDS011;5772;50.940;6.782;2023-01-16T06:45:44;20.73;;;19.90;;
11431;SDS011;5772;50.940;6.782;2023-01-16T06:48:09;19.87;;;19.07;;
11431;SDS011;5772;50.940;6.782;2023-01-16T06:50:35;20.60;;;19.80;;
11431;SDS011;5772;50.940;6.782;2023-01-16T06:53:00;21.93;;;21.03;;
11431;SDS011;5772;50.940;6.782;2023-01-16T06:55:26;20.80;;;20.00;;
11431;SDS011;5772;50.940;6.782;2023-01-16T06:57:52;21.13;;;20.33;;
11431;SDS011;5772;50.940;6.782;2023-01-16T07:00:18;20.37;;;19.57;;
11431;SDS011;5772;50.940;6.782;2023-01-16T07:02:48;21.70;;;20.63;;
11431;SDS011;5772;50.940;6.782;2023-01-16T07:05:15;19.80;;;19.03;;
11431;SDS011;5772;50.940;6.782;2023-01-16T07:07:41;20.30;;;19.50;;
11431;SDS011;5772;50.940;6.782;2023-01-16T07:10:06;21.43;;;20.53;;
11431;SDS011;5772;50.940;6.782;2023-01-16T07:12:33;20.83;;;19.73;;
11431;SDS011;5772;50.940;6.782;2023-01-16T07:14:59;21.53;;;20.57;;
11431;SDS011;5772;50.940;6.782;2023-01-16T07:17:25;21.43;;;20.43;;
11431;SDS011;5772;50.940;6.782;2023-01-16T07:19:50;20.97;;;20.07;;
11431;SDS011;5772;50.940;6.782;2023-01-16T07:22:16;22.33;;;20.97;;
11431;SDS011;5772;50.940;6.782;2023-01-16T07:24:42;20.77;;;19.90;;
11431;SDS011;5772;50.940;6.782;2023-01-16T07:27:07;21.43;;;20.53;;
11431;SDS011;5772;50.940;6.782;2023-01-16T07:29:33;20.20;;;19.30;;
11431;SDS011;5772;50.940;6.782;2023-01-16T07:32:01;21.23;;;20.20;;
11431;SDS011;5772;50.940;6.782;2023-01-16T07:34:27;21.50;;;20.27;;
11431;SDS011;5772;50.940;6.782;2023-01-16T07:36:53;21.67;;;20.67;;
11431;SDS011;5772;50.940;6.782;2023-01-16T07:39:18;21.20;;;19.87;;
11431;SDS011;5772;50.940;6.782;2023-01-16T07:41:43;23.30;;;22.23;;
11431;SDS011;5772;50.940;6.782;2023-01-16T07:44:09;22.33;;;21.20;;
11431;SDS011;5772;50.940;6.782;2023-01-16T07:46:34;22.17;;;21.17;;
11431;SDS011;5772;50.940;6.782;2023-01-16T07:49:01;25.13;;;23.77;;
11431;SDS011;5772;50.940;6.782;2023-01-16T07:51:27;25.80;;;24.70;;
11431;SDS011;5772;50.940;6.782;2023-01-16T07:53:52;28.07;;;26.47;;
11431;SDS011;5772;50.940;6.782;2023-01-16T07:56:18;28.47;;;27.13;;
11431;SDS011;5772;50.940;6.782;2023-01-16T07:58:43;31.70;;;30.20;;
11431;SDS011;5772;50.940;6.782;2023-01-16T08:01:09;33.03;;;31.53;;
11431;SDS011;5772;50.940;6.782;2023-01-16T08:03:34;32.70;;;31.20;;
11431;SDS011;5772;50.940;6.782;2023-01-16T08:06:01;32.77;;;31.47;;
11431;SDS011;5772;50.940;6.782;2023-01-16T08:08:27;32.40;;;31.10;;
11431;SDS011;5772;50.940;6.782;2023-01-16T08:10:53;34.07;;;32.77;;
11431;SDS011;5772;50.940;6.782;2023-01-16T08:13:19;32.97;;;31.57;;
11431;SDS011;5772;50.940;6.782;2023-01-16T08:15:44;32.67;;;31.30;;
11431;SDS011;5772;50.940;6.782;2023-01-16T08:18:09;32.40;;;31.00;;
11431;SDS011;5772;50.940;6.782;2023-01-16T08:20:35;33.63;;;31.97;;
11431;SDS011;5772;50.940;6.782;2023-01-16T08:23:01;30.90;;;29.70;;
11431;SDS011;5772;50.940;6.782;2023-01-16T08:25:27;32.33;;;30.93;;
11431;SDS011;5772;50.940;6.782;2023-01-16T08:27:52;31.63;;;30.30;;
11431;SDS011;5772;50.940;6.782;2023-01-16T08:30:18;32.00;;;30.70;;
11431;SDS011;5772;50.940;6.782;2023-01-16T08:32:43;30.40;;;29.20;;
11431;SDS011;5772;50.940;6.782;2023-01-16T08:35:09;31.53;;;30.23;;
11431;SDS011;5772;50.940;6.782;2023-01-16T08:37:35;31.97;;;30.67;;
11431;SDS011;5772;50.940;6.782;2023-01-16T08:40:02;34.93;;;33.53;;
11431;SDS011;5772;50.940;6.782;2023-01-16T08:42:28;34.17;;;32.67;;
11431;SDS011;5772;50.940;6.782;2023-01-16T08:44:53;32.17;;;30.63;;
11431;SDS011;5772;50.940;6.782;2023-01-16T08:47:20;30.27;;;28.63;;
11431;SDS011;5772;50.940;6.782;2023-01-16T08:49:47;31.33;;;29.77;;
11431;SDS011;5772;50.940;6.782;2023-01-16T08:52:13;32.23;;;31.00;;
11431;SDS011;5772;50.940;6.782;2023-01-16T08:54:38;33.57;;;32.20;;
11431;SDS011;5772;50.940;6.782;2023-01-16T08:57:05;31.30;;;30.10;;
11431;SDS011;5772;50.940;6.782;2023-01-16T08:59:30;32.27;;;30.67;;
11431;SDS011;5772;50.940;6.782;2023-01-16T09:01:55;32.13;;;30.43;;
11431;SDS011;5772;50.940;6.782;2023-01-16T09:04:21;33.17;;;31.33;;
11431;SDS011;5772;50.940;6.782;2023-01-16T09:06:47;34.00;;;32.60;;
11431;SDS011;5772;50.940;6.782;2023-01-16T09:09:12;32.53;;;31.23;;
11431;SDS011;5772;50.940;6.782;2023-01-16T09:11:37;31.63;;;30.30;;
11431;SDS011;5772;50.940;6.782;2023-01-16T09:14:04;31.80;;;30.60;;
11431;SDS011;5772;50.940;6.782;2023-01-16T09:16:29;34.00;;;32.60;;
11431;SDS011;5772;50.940;6.782;2023-01-16T09:18:55;32.70;;;31.20;;
11431;SDS011;5772;50.940;6.782;2023-01-16T09:21:20;33.93;;;32.63;;
11431;SDS011;5772;50.940;6.782;2023-01-16T09:23:45;33.23;;;31.93;;
11431;SDS011;5772;50.940;6.782;2023-01-16T09:26:11;33.77;;;32.27;;
11431;SDS011;5772;50.940;6.782;2023-01-16T09:28:36;33.27;;;31.87;;
11431;SDS011;5772;50.940;6.782;2023-01-16T09:31:03;35.77;;;34.27;;
11431;SDS011;5772;50.940;6.782;2023-01-16T09:33:29;32.87;;;31.57;;
11431;SDS011;5772;50.940;6.782;2023-01-16T09:35:54;34.73;;;33.33;;
11431;SDS011;5772;50.940;6.782;2023-01-16T09:38:19;33.23;;;31.93;;
11431;SDS011;5772;50.940;6.782;2023-01-16T09:40:45;34.77;;;33.03;;
11431;SDS011;5772;50.940;6.782;2023-01-16T09:43:14;33.73;;;32.43;;
11431;SDS011;5772;50.940;6.782;2023-01-16T09:45:46;31.43;;;30.23;;
11431;SDS011;5772;50.940;6.782;2023-01-16T09:48:15;32.90;;;31.27;;
11431;SDS011;5772;50.940;6.782;2023-01-16T09:50:48;31.97;;;30.67;;
11431;SDS011;5772;50.940;6.782;2023-01-16T09:53:16;31.50;;;30.20;;
11431;SDS011;5772;50.940;6.782;2023-01-16T09:55:44;29.17;;;27.80;;
11431;SDS011;5772;50.940;6.782;2023-01-16T09:58:13;27.63;;;26.53;;
11431;SDS011;5772;50.940;6.782;2023-01-16T10:00:39;29.77;;;28.57;;
11431;SDS011;5772;50.940;6.782;2023-01-16T10:03:06;26.03;;;25.03;;
11431;SDS011;5772;50.940;6.782;2023-01-16T10:05:36;26.17;;;25.10;;
11431;SDS011;5772;50.940;6.782;2023-01-16T10:08:07;26.33;;;25.33;;
11431;SDS011;5772;50.940;6.782;2023-01-16T10:10:39;25.73;;;24.73;;
11431;SDS011;5772;50.940;6.782;2023-01-16T10:13:15;26.40;;;25.33;;
11431;SDS011;5772;50.940;6.782;2023-01-16T10:15:50;25.33;;;24.33;;
11431;SDS011;5772;50.940;6.782;2023-01-16T10:18:23;25.03;;;24.03;;
11431;SDS011;5772;50.940;6.782;2023-01-16T10:21:00;24.73;;;23.73;;
11431;SDS011;5772;50.940;6.782;2023-01-16T10:23:43;24.63;;;23.60;;
11431;SDS011;5772;50.940;6.782;2023-01-16T10:26:15;24.03;;;23.13;;
11431;SDS011;5772;50.940;6.782;2023-01-16T10:28:46;25.23;;;24.23;;
11431;SDS011;5772;50.940;6.782;2023-01-16T10:31:18;24.30;;;23.30;;
11431;SDS011;5772;50.940;6.782;2023-01-16T10:33:48;23.70;;;22.60;;
11431;SDS011;5772;50.940;6.782;2023-01-16T10:36:17;22.57;;;21.67;;
11431;SDS011;5772;50.940;6.782;2023-01-16T10:38:44;22.50;;;21.60;;
11431;SDS011;5772;50.940;6.782;2023-01-16T10:41:14;22.87;;;21.97;;
11431;SDS011;5772;50.940;6.782;2023-01-16T10:43:41;22.13;;;21.30;;
11431;SDS011;5772;50.940;6.782;2023-01-16T10:46:10;21.50;;;20.50;;
11431;SDS011;5772;50.940;6.782;2023-01-16T10:48:38;22.37;;;21.53;;
11431;SDS011;5772;50.940;6.782;2023-01-16T10:51:04;21.17;;;20.27;;
11431;SDS011;5772;50.940;6.782;2023-01-16T10:53:32;21.27;;;20.47;;
11431;SDS011;5772;50.940;6.782;2023-01-16T10:55:58;21.27;;;20.47;;
11431;SDS011;5772;50.940;6.782;2023-01-16T10:58:24;22.07;;;21.17;;
11431;SDS011;5772;50.940;6.782;2023-01-16T11:00:52;20.60;;;19.80;;
11431;SDS011;5772;50.940;6.782;2023-01-16T11:03:19;21.13;;;20.33;;
11431;SDS011;5772;50.940;6.782;2023-01-16T11:05:54;22.27;;;21.37;;
11431;SDS011;5772;50.940;6.782;2023-01-16T11:08:32;22.40;;;21.50;;
11431;SDS011;5772;50.940;6.782;2023-01-16T11:10:58;21.80;;;21.00;;
11431;SDS011;5772;50.940;6.782;2023-01-16T11:13:24;23.17;;;22.27;;
11431;SDS011;5772;50.940;6.782;2023-01-16T11:16:00;21.63;;;20.73;;
11431;SDS011;5772;50.940;6.782;2023-01-16T11:18:26;23.27;;;22.37;;
11431;SDS011;5772;50.940;6.782;2023-01-16T11:20:52;23.27;;;22.37;;
11431;SDS011;5772;50.940;6.782;2023-01-16T11:23:19;22.97;;;22.07;;
11431;SDS011;5772;50.940;6.782;2023-01-16T11:25:47;22.83;;;21.93;;
11431;SDS011;5772;50.940;6.782;2023-01-16T11:28:15;22.33;;;21.43;;
11431;SDS011;5772;50.940;6.782;2023-01-16T11:30:44;22.77;;;21.87;;
11431;SDS011;5772;50.940;6.782;2023-01-16T11:33:12;23.00;;;22.10;;
11431;SDS011;5772;50.940;6.782;2023-01-16T11:35:38;24.03;;;22.83;;
11431;SDS011;5772;50.940;6.782;2023-01-16T11:38:04;23.43;;;22.53;;
11431;SDS011;5772;50.940;6.782;2023-01-16T11:40:31;22.33;;;21.47;;
11431;SDS011;5772;50.940;6.782;2023-01-16T11:43:06;22.57;;;21.67;;
11431;SDS011;5772;50.940;6.782;2023-01-16T11:45:33;20.17;;;19.37;;
11431;SDS011;5772;50.940;6.782;2023-01-16T11:48:05;20.10;;;19.23;;
11431;SDS011;5772;50.940;6.782;2023-01-16T11:50:33;19.77;;;18.97;;
11431;SDS011;5772;50.940;6.782;2023-01-16T11:53:00;20.13;;;19.27;;
11431;SDS011;5772;50.940;6.782;2023-01-16T11:55:28;20.77;;;19.97;;
11431;SDS011;5772;50.940;6.782;2023-01-16T11:57:57;21.17;;;20.00;;
11431;SDS011;5772;50.940;6.782;2023-01-16T12:00:31;21.67;;;20.80;;
11431;SDS011;5772;50.940;6.782;2023-01-16T12:03:02;20.57;;;19.50;;
11431;SDS011;5772;50.940;6.782;2023-01-16T12:05:41;21.30;;;20.33;;
11431;SDS011;5772;50.940;6.782;2023-01-16T12:08:17;21.80;;;20.93;;
11431;SDS011;5772;50.940;6.782;2023-01-16T12:10:51;21.50;;;20.60;;
11431;SDS011;5772;50.940;6.782;2023-01-16T12:13:22;21.60;;;20.80;;
11431;SDS011;5772;50.940;6.782;2023-01-16T12:15:56;19.87;;;19.07;;
11431;SDS011;5772;50.940;6.782;2023-01-16T12:18:32;23.13;;;21.97;;
11431;SDS011;5772;50.940;6.782;2023-01-16T12:21:02;21.80;;;20.90;;
11431;SDS011;5772;50.940;6.782;2023-01-16T12:26:20;23.07;;;22.17;;
11431;SDS011;5772;50.940;6.782;2023-01-16T12:28:51;22.33;;;21.33;;
11431;SDS011;5772;50.940;6.782;2023-01-16T12:31:36;22.00;;;21.20;;
11431;SDS011;5772;50.940;6.782;2023-01-16T12:34:28;21.70;;;20.83;;
11431;SDS011;5772;50.940;6.782;2023-01-16T12:37:05;22.00;;;21.10;;
11431;SDS011;5772;50.940;6.782;2023-01-16T12:39:40;21.50;;;20.70;;
11431;SDS011;5772;50.940;6.782;2023-01-16T12:42:09;21.13;;;20.33;;
11431;SDS011;5772;50.940;6.782;2023-01-16T12:44:45;19.77;;;18.97;;
11431;SDS011;5772;50.940;6.782;2023-01-16T12:47:27;19.47;;;18.77;;
11431;SDS011;5772;50.940;6.782;2023-01-16T12:50:03;20.77;;;19.87;;
11431;SDS011;5772;50.940;6.782;2023-01-16T12:52:38;21.63;;;20.80;;
11431;SDS011;5772;50.940;6.782;2023-01-16T12:55:15;22.17;;;21.30;;
11431;SDS011;5772;50.940;6.782;2023-01-16T12:57:54;20.53;;;19.67;;
11431;SDS011;5772;50.940;6.782;2023-01-16T13:00:25;21.47;;;20.67;;
11431;SDS011;5772;50.940;6.782;2023-01-16T13:02:54;21.50;;;20.57;;
11431;SDS011;5772;50.940;6.782;2023-01-16T13:05:24;22.17;;;21.27;;
11431;SDS011;5772;50.940;6.782;2023-01-16T13:07:52;22.43;;;21.53;;
11431;SDS011;5772;50.940;6.782;2023-01-16T13:10:21;23.80;;;22.90;;
11431;SDS011;5772;50.940;6.782;2023-01-16T13:12:48;23.50;;;22.40;;
11431;SDS011;5772;50.940;6.782;2023-01-16T13:15:15;24.00;;;23.00;;
11431;SDS011;5772;50.940;6.782;2023-01-16T13:17:45;23.83;;;22.90;;
11431;SDS011;5772;50.940;6.782;2023-01-16T13:20:14;23.77;;;22.87;;
11431;SDS011;5772;50.940;6.782;2023-01-16T13:22:43;24.57;;;23.57;;
11431;SDS011;5772;50.940;6.782;2023-01-16T13:25:14;44.00;;;42.17;;
11431;SDS011;5772;50.940;6.782;2023-01-16T13:27:43;23.40;;;22.40;;
11431;SDS011;5772;50.940;6.782;2023-01-16T13:30:12;24.63;;;23.63;;
11431;SDS011;5772;50.940;6.782;2023-01-16T13:32:39;24.13;;;23.13;;
11431;SDS011;5772;50.940;6.782;2023-01-16T13:35:07;24.90;;;23.90;;
11431;SDS011;5772;50.940;6.782;2023-01-16T13:40:45;23.60;;;22.60;;
11431;SDS011;5772;50.940;6.782;2023-01-16T13:43:18;25.70;;;24.70;;
11431;SDS011;5772;50.940;6.782;2023-01-16T13:45:45;23.53;;;22.63;;
11431;SDS011;5772;50.940;6.782;2023-01-16T13:48:11;24.23;;;23.23;;
11431;SDS011;5772;50.940;6.782;2023-01-16T13:50:36;23.33;;;22.33;;
11431;SDS011;5772;50.940;6.782;2023-01-16T13:53:03;24.50;;;23.57;;
11431;SDS011;5772;50.940;6.782;2023-01-16T13:55:30;26.63;;;25.57;;
11431;SDS011;5772;50.940;6.782;2023-01-16T13:58:06;29.20;;;27.77;;
11431;SDS011;5772;50.940;6.782;2023-01-16T14:00:33;28.60;;;27.47;;
11431;SDS011;5772;50.940;6.782;2023-01-16T14:03:01;28.97;;;27.77;;
11431;SDS011;5772;50.940;6.782;2023-01-16T14:08:28;29.63;;;28.27;;
11431;SDS011;5772;50.940;6.782;2023-01-16T14:11:24;29.30;;;28.20;;
11431;SDS011;5772;50.940;6.782;2023-01-16T14:17:00;31.47;;;30.07;;
11431;SDS011;5772;50.940;6.782;2023-01-16T14:19:26;30.40;;;29.20;;
11431;SDS011;5772;50.940;6.782;2023-01-16T14:22:00;32.03;;;30.73;;
11431;SDS011;5772;50.940;6.782;2023-01-16T14:24:27;30.00;;;28.80;;
11431;SDS011;5772;50.940;6.782;2023-01-16T14:26:53;29.73;;;28.53;;
11431;SDS011;5772;50.940;6.782;2023-01-16T14:29:19;32.27;;;30.97;;
11431;SDS011;5772;50.940;6.782;2023-01-16T14:31:52;33.60;;;32.30;;
11431;SDS011;5772;50.940;6.782;2023-01-16T14:34:20;34.77;;;33.27;;
11431;SDS011;5772;50.940;6.782;2023-01-16T14:36:47;33.23;;;31.93;;
11431;SDS011;5772;50.940;6.782;2023-01-16T14:39:28;34.97;;;33.53;;
11431;SDS011;5772;50.940;6.782;2023-01-16T14:41:56;35.67;;;34.27;;
11431;SDS011;5772;50.940;6.782;2023-01-16T14:44:22;33.57;;;32.27;;
11431;SDS011;5772;50.940;6.782;2023-01-16T14:46:51;35.07;;;33.67;;
11431;SDS011;5772;50.940;6.782;2023-01-16T14:52:07;31.47;;;30.17;;
11431;SDS011;5772;50.940;6.782;2023-01-16T14:54:34;30.40;;;29.20;;
11431;SDS011;5772;50.940;6.782;2023-01-16T14:57:01;30.60;;;29.37;;
11431;SDS011;5772;50.940;6.782;2023-01-16T14:59:29;30.70;;;29.50;;